sensor_id;sensor_type;location;lat;lon;timestamp;P1;durP1;ratioP1;P2;durP2;ratioP2
82230;SDS011;71832;45.138;9.816;2023-08-30T00:01:31;5.70;;;1.90;;
82230;SDS011;71832;45.138;9.816;2023-08-30T00:04:00;6.78;;;1.40;;
82230;SDS011;71832;45.138;9.816;2023-08-30T00:06:27;3.72;;;1.63;;
82230;SDS011;71832;45.138;9.816;2023-08-30T00:08:58;3.78;;;1.45;;
82230;SDS011;71832;45.138;9.816;2023-08-30T00:11:44;3.85;;;1.73;;
82230;SDS011;71832;45.138;9.816;2023-08-30T00:14:31;4.05;;;1.65;;
82230;SDS011;71832;45.138;9.816;2023-08-30T00:16:59;4.45;;;2.00;;
82230;SDS011;71832;45.138;9.816;2023-08-30T00:19:27;4.38;;;1.70;;
82230;SDS011;71832;45.138;9.816;2023-08-30T00:21:56;5.28;;;1.90;;
82230;SDS011;71832;45.138;9.816;2023-08-30T00:24:28;4.72;;;1.70;;
82230;SDS011;71832;45.138;9.816;2023-08-30T00:26:56;2.88;;;1.50;;
82230;SDS011;71832;45.138;9.816;2023-08-30T00:29:33;3.85;;;1.50;;
82230;SDS011;71832;45.138;9.816;2023-08-30T00:32:16;3.35;;;1.88;;
82230;SDS011;71832;45.138;9.816;2023-08-30T00:34:57;4.18;;;2.25;;
82230;SDS011;71832;45.138;9.816;2023-08-30T00:37:27;8.80;;;2.10;;
82230;SDS011;71832;45.138;9.816;2023-08-30T00:40:01;6.93;;;1.85;;
82230;SDS011;71832;45.138;9.816;2023-08-30T00:42:29;3.50;;;1.73;;
82230;SDS011;71832;45.138;9.816;2023-08-30T00:44:57;4.13;;;2.13;;
82230;SDS011;71832;45.138;9.816;2023-08-30T00:47:25;3.75;;;2.28;;
82230;SDS011;71832;45.138;9.816;2023-08-30T00:49:54;4.95;;;2.00;;
82230;SDS011;71832;45.138;9.816;2023-08-30T00:52:22;4.43;;;1.92;;
82230;SDS011;71832;45.138;9.816;2023-08-30T00:54:51;3.55;;;2.00;;
82230;SDS011;71832;45.138;9.816;2023-08-30T00:57:19;6.85;;;1.90;;
82230;SDS011;71832;45.138;9.816;2023-08-30T00:59:47;2.90;;;1.85;;
82230;SDS011;71832;45.138;9.816;2023-08-30T01:02:17;4.65;;;2.28;;
82230;SDS011;71832;45.138;9.816;2023-08-30T01:04:45;7.40;;;2.55;;
82230;SDS011;71832;45.138;9.816;2023-08-30T01:07:13;3.53;;;2.50;;
82230;SDS011;71832;45.138;9.816;2023-08-30T01:09:40;6.18;;;2.80;;
82230;SDS011;71832;45.138;9.816;2023-08-30T01:14:40;4.45;;;2.40;;
82230;SDS011;71832;45.138;9.816;2023-08-30T01:17:29;4.00;;;2.33;;
82230;SDS011;71832;45.138;9.816;2023-08-30T01:19:59;4.55;;;2.88;;
82230;SDS011;71832;45.138;9.816;2023-08-30T01:25:45;3.75;;;2.20;;
82230;SDS011;71832;45.138;9.816;2023-08-30T01:27:51;5.15;;;2.33;;
82230;SDS011;71832;45.138;9.816;2023-08-30T01:30:21;5.30;;;2.17;;
82230;SDS011;71832;45.138;9.816;2023-08-30T01:32:52;5.20;;;3.03;;
82230;SDS011;71832;45.138;9.816;2023-08-30T01:35:21;6.80;;;2.30;;
82230;SDS011;71832;45.138;9.816;2023-08-30T01:37:51;4.22;;;2.28;;
82230;SDS011;71832;45.138;9.816;2023-08-30T01:40:19;3.42;;;2.05;;
82230;SDS011;71832;45.138;9.816;2023-08-30T01:42:47;4.85;;;2.35;;
82230;SDS011;71832;45.138;9.816;2023-08-30T01:45:16;5.70;;;2.30;;
82230;SDS011;71832;45.138;9.816;2023-08-30T01:47:44;5.45;;;1.83;;
82230;SDS011;71832;45.138;9.816;2023-08-30T01:50:14;3.10;;;1.98;;
82230;SDS011;71832;45.138;9.816;2023-08-30T01:52:43;4.45;;;2.40;;
82230;SDS011;71832;45.138;9.816;2023-08-30T01:55:11;7.20;;;2.20;;
82230;SDS011;71832;45.138;9.816;2023-08-30T01:57:42;4.28;;;2.05;;
82230;SDS011;71832;45.138;9.816;2023-08-30T02:00:11;3.88;;;2.50;;
82230;SDS011;71832;45.138;9.816;2023-08-30T02:02:40;3.45;;;1.85;;
82230;SDS011;71832;45.138;9.816;2023-08-30T02:05:09;4.95;;;2.15;;
82230;SDS011;71832;45.138;9.816;2023-08-30T02:10:15;6.25;;;2.00;;
82230;SDS011;71832;45.138;9.816;2023-08-30T02:12:48;3.15;;;2.13;;
82230;SDS011;71832;45.138;9.816;2023-08-30T02:15:20;5.32;;;2.72;;
82230;SDS011;71832;45.138;9.816;2023-08-30T02:17:50;3.83;;;2.20;;
82230;SDS011;71832;45.138;9.816;2023-08-30T02:20:19;5.07;;;2.60;;
82230;SDS011;71832;45.138;9.816;2023-08-30T02:22:48;5.13;;;2.63;;
82230;SDS011;71832;45.138;9.816;2023-08-30T02:25:16;5.55;;;2.42;;
82230;SDS011;71832;45.138;9.816;2023-08-30T02:27:44;3.55;;;2.13;;
82230;SDS011;71832;45.138;9.816;2023-08-30T02:30:13;11.32;;;4.13;;
82230;SDS011;71832;45.138;9.816;2023-08-30T02:32:41;6.55;;;3.17;;
82230;SDS011;71832;45.138;9.816;2023-08-30T02:35:09;7.43;;;2.83;;
82230;SDS011;71832;45.138;9.816;2023-08-30T02:37:39;5.68;;;2.78;;
82230;SDS011;71832;45.138;9.816;2023-08-30T02:40:08;5.75;;;2.72;;
82230;SDS011;71832;45.138;9.816;2023-08-30T02:42:36;4.70;;;2.90;;
82230;SDS011;71832;45.138;9.816;2023-08-30T02:45:04;5.32;;;3.85;;
82230;SDS011;71832;45.138;9.816;2023-08-30T02:47:33;4.43;;;3.35;;
82230;SDS011;71832;45.138;9.816;2023-08-30T02:50:02;9.82;;;3.50;;
82230;SDS011;71832;45.138;9.816;2023-08-30T02:52:30;6.40;;;3.33;;
82230;SDS011;71832;45.138;9.816;2023-08-30T02:55:00;4.28;;;3.05;;
82230;SDS011;71832;45.138;9.816;2023-08-30T02:57:29;5.60;;;3.10;;
82230;SDS011;71832;45.138;9.816;2023-08-30T02:59:57;4.90;;;2.80;;
82230;SDS011;71832;45.138;9.816;2023-08-30T03:02:26;5.65;;;3.20;;
82230;SDS011;71832;45.138;9.816;2023-08-30T03:04:55;5.93;;;3.20;;
82230;SDS011;71832;45.138;9.816;2023-08-30T03:07:24;5.47;;;3.03;;
82230;SDS011;71832;45.138;9.816;2023-08-30T03:09:52;6.28;;;3.00;;
82230;SDS011;71832;45.138;9.816;2023-08-30T03:12:22;5.65;;;2.90;;
82230;SDS011;71832;45.138;9.816;2023-08-30T03:14:50;6.40;;;3.42;;
82230;SDS011;71832;45.138;9.816;2023-08-30T03:17:19;6.40;;;2.70;;
82230;SDS011;71832;45.138;9.816;2023-08-30T03:19:48;8.13;;;3.42;;
82230;SDS011;71832;45.138;9.816;2023-08-30T03:22:19;7.97;;;3.42;;
82230;SDS011;71832;45.138;9.816;2023-08-30T03:24:47;5.68;;;2.83;;
82230;SDS011;71832;45.138;9.816;2023-08-30T03:27:16;5.00;;;2.75;;
82230;SDS011;71832;45.138;9.816;2023-08-30T03:29:45;5.72;;;2.88;;
82230;SDS011;71832;45.138;9.816;2023-08-30T03:32:16;6.07;;;2.90;;
82230;SDS011;71832;45.138;9.816;2023-08-30T03:34:45;8.05;;;4.05;;
82230;SDS011;71832;45.138;9.816;2023-08-30T03:37:14;9.57;;;3.53;;
82230;SDS011;71832;45.138;9.816;2023-08-30T03:39:43;8.35;;;3.13;;
82230;SDS011;71832;45.138;9.816;2023-08-30T03:42:12;5.97;;;3.45;;
82230;SDS011;71832;45.138;9.816;2023-08-30T03:44:40;5.60;;;3.65;;
82230;SDS011;71832;45.138;9.816;2023-08-30T03:47:09;7.07;;;3.80;;
82230;SDS011;71832;45.138;9.816;2023-08-30T03:49:38;7.22;;;3.22;;
82230;SDS011;71832;45.138;9.816;2023-08-30T03:52:07;6.22;;;3.55;;
82230;SDS011;71832;45.138;9.816;2023-08-30T03:54:35;7.75;;;3.70;;
82230;SDS011;71832;45.138;9.816;2023-08-30T03:57:04;5.97;;;3.45;;
82230;SDS011;71832;45.138;9.816;2023-08-30T03:59:33;6.60;;;3.45;;
82230;SDS011;71832;45.138;9.816;2023-08-30T04:02:01;5.45;;;2.95;;
82230;SDS011;71832;45.138;9.816;2023-08-30T04:04:30;9.65;;;3.58;;
82230;SDS011;71832;45.138;9.816;2023-08-30T04:06:59;6.10;;;3.30;;
82230;SDS011;71832;45.138;9.816;2023-08-30T04:09:28;6.15;;;3.75;;
82230;SDS011;71832;45.138;9.816;2023-08-30T04:11:57;7.68;;;3.50;;
82230;SDS011;71832;45.138;9.816;2023-08-30T04:14:26;4.88;;;3.13;;
82230;SDS011;71832;45.138;9.816;2023-08-30T04:16:55;6.57;;;3.88;;
82230;SDS011;71832;45.138;9.816;2023-08-30T04:19:24;6.85;;;3.92;;
82230;SDS011;71832;45.138;9.816;2023-08-30T04:21:51;7.80;;;3.42;;
82230;SDS011;71832;45.138;9.816;2023-08-30T04:24:19;6.97;;;3.42;;
82230;SDS011;71832;45.138;9.816;2023-08-30T04:26:46;7.63;;;3.80;;
82230;SDS011;71832;45.138;9.816;2023-08-30T04:29:17;4.97;;;3.08;;
82230;SDS011;71832;45.138;9.816;2023-08-30T04:31:44;10.32;;;3.80;;
82230;SDS011;71832;45.138;9.816;2023-08-30T04:34:12;7.28;;;3.20;;
82230;SDS011;71832;45.138;9.816;2023-08-30T04:36:42;7.03;;;3.38;;
82230;SDS011;71832;45.138;9.816;2023-08-30T04:39:10;7.15;;;3.35;;
82230;SDS011;71832;45.138;9.816;2023-08-30T04:41:39;6.95;;;3.50;;
82230;SDS011;71832;45.138;9.816;2023-08-30T04:44:08;5.00;;;3.20;;
82230;SDS011;71832;45.138;9.816;2023-08-30T04:46:37;5.40;;;2.92;;
82230;SDS011;71832;45.138;9.816;2023-08-30T04:49:06;10.02;;;3.95;;
82230;SDS011;71832;45.138;9.816;2023-08-30T04:51:34;7.68;;;3.53;;
82230;SDS011;71832;45.138;9.816;2023-08-30T04:54:03;8.63;;;3.45;;
82230;SDS011;71832;45.138;9.816;2023-08-30T04:56:32;6.80;;;3.47;;
82230;SDS011;71832;45.138;9.816;2023-08-30T04:59:00;9.70;;;4.03;;
82230;SDS011;71832;45.138;9.816;2023-08-30T05:01:30;8.75;;;3.33;;
82230;SDS011;71832;45.138;9.816;2023-08-30T05:03:58;6.00;;;3.28;;
82230;SDS011;71832;45.138;9.816;2023-08-30T05:06:27;10.35;;;4.03;;
82230;SDS011;71832;45.138;9.816;2023-08-30T05:08:55;9.65;;;5.53;;
82230;SDS011;71832;45.138;9.816;2023-08-30T05:11:24;5.75;;;4.65;;
82230;SDS011;71832;45.138;9.816;2023-08-30T05:13:52;10.55;;;4.57;;
82230;SDS011;71832;45.138;9.816;2023-08-30T05:16:21;7.70;;;4.00;;
82230;SDS011;71832;45.138;9.816;2023-08-30T05:18:49;6.63;;;3.47;;
82230;SDS011;71832;45.138;9.816;2023-08-30T05:21:17;9.50;;;3.78;;
82230;SDS011;71832;45.138;9.816;2023-08-30T05:23:45;5.30;;;3.15;;
82230;SDS011;71832;45.138;9.816;2023-08-30T05:26:13;8.63;;;4.20;;
82230;SDS011;71832;45.138;9.816;2023-08-30T05:28:45;7.72;;;4.18;;
82230;SDS011;71832;45.138;9.816;2023-08-30T05:31:12;7.03;;;3.85;;
82230;SDS011;71832;45.138;9.816;2023-08-30T05:33:40;5.03;;;3.63;;
82230;SDS011;71832;45.138;9.816;2023-08-30T05:36:07;6.47;;;4.10;;
82230;SDS011;71832;45.138;9.816;2023-08-30T05:38:36;6.65;;;4.28;;
82230;SDS011;71832;45.138;9.816;2023-08-30T05:41:03;7.78;;;4.40;;
82230;SDS011;71832;45.138;9.816;2023-08-30T05:43:31;6.80;;;3.63;;
82230;SDS011;71832;45.138;9.816;2023-08-30T05:45:59;5.95;;;4.18;;
82230;SDS011;71832;45.138;9.816;2023-08-30T05:48:28;6.38;;;3.95;;
82230;SDS011;71832;45.138;9.816;2023-08-30T05:50:57;6.30;;;4.13;;
82230;SDS011;71832;45.138;9.816;2023-08-30T05:53:25;11.43;;;5.38;;
82230;SDS011;71832;45.138;9.816;2023-08-30T05:55:54;6.47;;;4.60;;
82230;SDS011;71832;45.138;9.816;2023-08-30T05:58:23;7.65;;;5.05;;
82230;SDS011;71832;45.138;9.816;2023-08-30T06:00:51;8.75;;;4.80;;
82230;SDS011;71832;45.138;9.816;2023-08-30T06:03:19;10.10;;;5.20;;
82230;SDS011;71832;45.138;9.816;2023-08-30T06:05:47;12.23;;;8.27;;
82230;SDS011;71832;45.138;9.816;2023-08-30T06:08:15;13.18;;;7.93;;
82230;SDS011;71832;45.138;9.816;2023-08-30T06:10:43;11.68;;;7.10;;
82230;SDS011;71832;45.138;9.816;2023-08-30T06:13:11;12.50;;;9.75;;
82230;SDS011;71832;45.138;9.816;2023-08-30T06:15:38;8.00;;;5.50;;
82230;SDS011;71832;45.138;9.816;2023-08-30T06:18:05;7.20;;;5.85;;
82230;SDS011;71832;45.138;9.816;2023-08-30T06:20:33;11.25;;;10.05;;
82230;SDS011;71832;45.138;9.816;2023-08-30T06:23:02;11.48;;;9.05;;
82230;SDS011;71832;45.138;9.816;2023-08-30T06:25:30;15.00;;;11.77;;
82230;SDS011;71832;45.138;9.816;2023-08-30T06:27:58;7.18;;;3.38;;
82230;SDS011;71832;45.138;9.816;2023-08-30T06:30:28;10.77;;;9.32;;
82230;SDS011;71832;45.138;9.816;2023-08-30T06:32:56;17.15;;;14.80;;
82230;SDS011;71832;45.138;9.816;2023-08-30T06:35:24;10.13;;;7.15;;
82230;SDS011;71832;45.138;9.816;2023-08-30T06:37:52;8.43;;;5.53;;
82230;SDS011;71832;45.138;9.816;2023-08-30T06:40:21;7.13;;;5.30;;
82230;SDS011;71832;45.138;9.816;2023-08-30T06:42:50;6.78;;;4.63;;
82230;SDS011;71832;45.138;9.816;2023-08-30T06:45:19;7.65;;;6.28;;
82230;SDS011;71832;45.138;9.816;2023-08-30T06:47:48;6.40;;;4.45;;
82230;SDS011;71832;45.138;9.816;2023-08-30T06:50:16;8.63;;;6.50;;
82230;SDS011;71832;45.138;9.816;2023-08-30T06:52:44;8.38;;;5.25;;
82230;SDS011;71832;45.138;9.816;2023-08-30T06:55:12;6.45;;;3.50;;
82230;SDS011;71832;45.138;9.816;2023-08-30T06:57:40;6.80;;;4.85;;
82230;SDS011;71832;45.138;9.816;2023-08-30T07:00:07;7.80;;;3.97;;
82230;SDS011;71832;45.138;9.816;2023-08-30T07:02:36;6.32;;;4.38;;
82230;SDS011;71832;45.138;9.816;2023-08-30T07:05:04;7.07;;;3.92;;
82230;SDS011;71832;45.138;9.816;2023-08-30T07:07:32;5.18;;;4.00;;
82230;SDS011;71832;45.138;9.816;2023-08-30T07:09:59;8.95;;;3.92;;
82230;SDS011;71832;45.138;9.816;2023-08-30T07:12:28;4.85;;;2.80;;
82230;SDS011;71832;45.138;9.816;2023-08-30T07:14:57;6.10;;;3.10;;
82230;SDS011;71832;45.138;9.816;2023-08-30T07:17:26;6.00;;;3.38;;
82230;SDS011;71832;45.138;9.816;2023-08-30T07:19:54;5.03;;;2.83;;
82230;SDS011;71832;45.138;9.816;2023-08-30T07:22:24;4.88;;;2.95;;
82230;SDS011;71832;45.138;9.816;2023-08-30T07:24:51;10.85;;;3.38;;
82230;SDS011;71832;45.138;9.816;2023-08-30T07:27:19;7.53;;;3.38;;
82230;SDS011;71832;45.138;9.816;2023-08-30T07:29:47;8.18;;;3.65;;
82230;SDS011;71832;45.138;9.816;2023-08-30T07:32:15;5.65;;;3.30;;
82230;SDS011;71832;45.138;9.816;2023-08-30T07:34:43;7.07;;;3.33;;
82230;SDS011;71832;45.138;9.816;2023-08-30T07:37:20;5.95;;;3.63;;
82230;SDS011;71832;45.138;9.816;2023-08-30T07:39:48;8.30;;;4.43;;
82230;SDS011;71832;45.138;9.816;2023-08-30T07:42:17;7.05;;;3.60;;
82230;SDS011;71832;45.138;9.816;2023-08-30T07:44:45;6.38;;;3.90;;
82230;SDS011;71832;45.138;9.816;2023-08-30T07:47:12;6.13;;;3.50;;
82230;SDS011;71832;45.138;9.816;2023-08-30T07:49:40;8.65;;;4.07;;
82230;SDS011;71832;45.138;9.816;2023-08-30T07:52:08;5.30;;;3.50;;
82230;SDS011;71832;45.138;9.816;2023-08-30T07:54:37;6.43;;;3.40;;
82230;SDS011;71832;45.138;9.816;2023-08-30T07:57:05;8.95;;;3.53;;
82230;SDS011;71832;45.138;9.816;2023-08-30T07:59:35;6.82;;;3.80;;
82230;SDS011;71832;45.138;9.816;2023-08-30T08:02:04;6.03;;;3.25;;
82230;SDS011;71832;45.138;9.816;2023-08-30T08:04:33;5.07;;;2.97;;
82230;SDS011;71832;45.138;9.816;2023-08-30T08:07:02;6.10;;;3.08;;
82230;SDS011;71832;45.138;9.816;2023-08-30T08:09:30;7.50;;;3.00;;
82230;SDS011;71832;45.138;9.816;2023-08-30T08:11:59;6.00;;;2.90;;
82230;SDS011;71832;45.138;9.816;2023-08-30T08:14:26;4.60;;;2.28;;
82230;SDS011;71832;45.138;9.816;2023-08-30T08:16:54;5.80;;;2.63;;
82230;SDS011;71832;45.138;9.816;2023-08-30T08:19:22;4.72;;;2.53;;
82230;SDS011;71832;45.138;9.816;2023-08-30T08:21:50;5.88;;;2.90;;
82230;SDS011;71832;45.138;9.816;2023-08-30T08:24:20;4.53;;;2.40;;
82230;SDS011;71832;45.138;9.816;2023-08-30T08:26:49;6.57;;;2.40;;
82230;SDS011;71832;45.138;9.816;2023-08-30T08:29:18;4.68;;;2.17;;
82230;SDS011;71832;45.138;9.816;2023-08-30T08:31:46;4.80;;;2.40;;
82230;SDS011;71832;45.138;9.816;2023-08-30T08:34:14;3.90;;;2.00;;
82230;SDS011;71832;45.138;9.816;2023-08-30T08:36:42;4.72;;;2.90;;
82230;SDS011;71832;45.138;9.816;2023-08-30T08:39:11;5.28;;;2.58;;
82230;SDS011;71832;45.138;9.816;2023-08-30T08:41:41;5.13;;;2.15;;
82230;SDS011;71832;45.138;9.816;2023-08-30T08:44:09;4.15;;;1.90;;
82230;SDS011;71832;45.138;9.816;2023-08-30T08:46:39;3.50;;;1.73;;
82230;SDS011;71832;45.138;9.816;2023-08-30T08:49:09;3.50;;;1.70;;
82230;SDS011;71832;45.138;9.816;2023-08-30T08:51:40;6.20;;;1.98;;
82230;SDS011;71832;45.138;9.816;2023-08-30T08:54:09;4.13;;;2.00;;
82230;SDS011;71832;45.138;9.816;2023-08-30T08:56:38;4.43;;;1.80;;
82230;SDS011;71832;45.138;9.816;2023-08-30T08:59:06;4.07;;;1.90;;
82230;SDS011;71832;45.138;9.816;2023-08-30T09:01:35;6.68;;;2.40;;
82230;SDS011;71832;45.138;9.816;2023-08-30T09:04:06;3.55;;;1.90;;
82230;SDS011;71832;45.138;9.816;2023-08-30T09:06:36;4.15;;;1.77;;
82230;SDS011;71832;45.138;9.816;2023-08-30T09:09:07;3.78;;;1.70;;
82230;SDS011;71832;45.138;9.816;2023-08-30T09:11:36;3.03;;;1.60;;
82230;SDS011;71832;45.138;9.816;2023-08-30T09:14:04;4.03;;;2.50;;
82230;SDS011;71832;45.138;9.816;2023-08-30T09:16:33;5.53;;;2.20;;
82230;SDS011;71832;45.138;9.816;2023-08-30T09:19:02;3.58;;;1.88;;
82230;SDS011;71832;45.138;9.816;2023-08-30T09:21:31;5.45;;;2.22;;
82230;SDS011;71832;45.138;9.816;2023-08-30T09:24:00;4.90;;;2.13;;
82230;SDS011;71832;45.138;9.816;2023-08-30T09:26:30;3.92;;;2.42;;
82230;SDS011;71832;45.138;9.816;2023-08-30T09:29:04;6.43;;;2.25;;
82230;SDS011;71832;45.138;9.816;2023-08-30T09:31:33;3.60;;;2.08;;
82230;SDS011;71832;45.138;9.816;2023-08-30T09:34:02;4.28;;;1.98;;
82230;SDS011;71832;45.138;9.816;2023-08-30T09:36:40;5.07;;;2.30;;
82230;SDS011;71832;45.138;9.816;2023-08-30T09:41:40;3.50;;;1.80;;
82230;SDS011;71832;45.138;9.816;2023-08-30T09:44:09;2.10;;;1.27;;
82230;SDS011;71832;45.138;9.816;2023-08-30T09:46:58;5.03;;;1.60;;
82230;SDS011;71832;45.138;9.816;2023-08-30T09:49:25;4.43;;;2.20;;
82230;SDS011;71832;45.138;9.816;2023-08-30T09:51:54;4.18;;;2.30;;
82230;SDS011;71832;45.138;9.816;2023-08-30T09:54:24;5.50;;;2.20;;
82230;SDS011;71832;45.138;9.816;2023-08-30T09:56:54;4.57;;;2.20;;
82230;SDS011;71832;45.138;9.816;2023-08-30T09:59:23;3.05;;;1.58;;
82230;SDS011;71832;45.138;9.816;2023-08-30T10:01:52;5.25;;;1.92;;
82230;SDS011;71832;45.138;9.816;2023-08-30T10:04:21;4.35;;;1.80;;
82230;SDS011;71832;45.138;9.816;2023-08-30T10:06:50;5.18;;;1.85;;
82230;SDS011;71832;45.138;9.816;2023-08-30T10:09:20;4.43;;;1.90;;
82230;SDS011;71832;45.138;9.816;2023-08-30T10:11:50;5.28;;;2.15;;
82230;SDS011;71832;45.138;9.816;2023-08-30T10:14:19;4.00;;;2.05;;
82230;SDS011;71832;45.138;9.816;2023-08-30T10:16:48;4.07;;;1.55;;
82230;SDS011;71832;45.138;9.816;2023-08-30T10:19:23;2.65;;;1.52;;
82230;SDS011;71832;45.138;9.816;2023-08-30T10:21:55;5.22;;;1.80;;
82230;SDS011;71832;45.138;9.816;2023-08-30T10:24:28;5.97;;;1.98;;
82230;SDS011;71832;45.138;9.816;2023-08-30T10:27:00;4.10;;;1.67;;
82230;SDS011;71832;45.138;9.816;2023-08-30T10:29:31;2.55;;;1.73;;
82230;SDS011;71832;45.138;9.816;2023-08-30T10:32:03;3.42;;;1.35;;
82230;SDS011;71832;45.138;9.816;2023-08-30T10:34:32;4.28;;;1.92;;
82230;SDS011;71832;45.138;9.816;2023-08-30T10:37:02;3.92;;;1.52;;
82230;SDS011;71832;45.138;9.816;2023-08-30T10:39:34;2.00;;;1.42;;
82230;SDS011;71832;45.138;9.816;2023-08-30T10:42:13;2.15;;;1.30;;
82230;SDS011;71832;45.138;9.816;2023-08-30T10:47:29;5.20;;;1.98;;
82230;SDS011;71832;45.138;9.816;2023-08-30T10:49:59;5.57;;;2.20;;
82230;SDS011;71832;45.138;9.816;2023-08-30T10:52:30;5.45;;;2.08;;
82230;SDS011;71832;45.138;9.816;2023-08-30T10:55:07;4.57;;;1.60;;
82230;SDS011;71832;45.138;9.816;2023-08-30T10:57:36;3.13;;;1.77;;
82230;SDS011;71832;45.138;9.816;2023-08-30T11:00:05;5.05;;;2.00;;
82230;SDS011;71832;45.138;9.816;2023-08-30T11:02:35;3.10;;;1.58;;
82230;SDS011;71832;45.138;9.816;2023-08-30T11:05:05;3.70;;;2.17;;
82230;SDS011;71832;45.138;9.816;2023-08-30T11:07:34;2.97;;;2.03;;
82230;SDS011;71832;45.138;9.816;2023-08-30T11:10:04;4.97;;;2.10;;
82230;SDS011;71832;45.138;9.816;2023-08-30T11:12:32;5.95;;;1.70;;
82230;SDS011;71832;45.138;9.816;2023-08-30T11:15:01;4.38;;;1.73;;
82230;SDS011;71832;45.138;9.816;2023-08-30T11:17:28;3.65;;;1.30;;
82230;SDS011;71832;45.138;9.816;2023-08-30T11:19:57;2.90;;;1.40;;
82230;SDS011;71832;45.138;9.816;2023-08-30T11:22:32;2.38;;;1.17;;
82230;SDS011;71832;45.138;9.816;2023-08-30T11:25:03;2.90;;;1.10;;
82230;SDS011;71832;45.138;9.816;2023-08-30T11:27:32;2.75;;;1.13;;
82230;SDS011;71832;45.138;9.816;2023-08-30T11:30:00;3.35;;;1.20;;
82230;SDS011;71832;45.138;9.816;2023-08-30T11:32:32;2.60;;;1.30;;
82230;SDS011;71832;45.138;9.816;2023-08-30T11:35:02;4.00;;;1.77;;
82230;SDS011;71832;45.138;9.816;2023-08-30T11:37:31;2.47;;;1.30;;
82230;SDS011;71832;45.138;9.816;2023-08-30T11:39:59;2.80;;;1.30;;
82230;SDS011;71832;45.138;9.816;2023-08-30T11:42:30;3.80;;;1.52;;
82230;SDS011;71832;45.138;9.816;2023-08-30T11:44:58;3.25;;;1.42;;
82230;SDS011;71832;45.138;9.816;2023-08-30T11:47:27;2.10;;;1.33;;
82230;SDS011;71832;45.138;9.816;2023-08-30T11:49:55;4.10;;;1.20;;
82230;SDS011;71832;45.138;9.816;2023-08-30T11:52:25;5.60;;;1.40;;
82230;SDS011;71832;45.138;9.816;2023-08-30T11:54:54;2.20;;;1.17;;
82230;SDS011;71832;45.138;9.816;2023-08-30T11:57:23;3.00;;;1.45;;
82230;SDS011;71832;45.138;9.816;2023-08-30T11:59:53;4.95;;;1.30;;
82230;SDS011;71832;45.138;9.816;2023-08-30T12:02:22;1.92;;;1.23;;
82230;SDS011;71832;45.138;9.816;2023-08-30T12:04:50;2.20;;;1.00;;
82230;SDS011;71832;45.138;9.816;2023-08-30T12:07:28;2.15;;;0.93;;
82230;SDS011;71832;45.138;9.816;2023-08-30T12:10:17;2.75;;;1.25;;
82230;SDS011;71832;45.138;9.816;2023-08-30T12:12:46;2.70;;;1.10;;
82230;SDS011;71832;45.138;9.816;2023-08-30T12:15:14;2.85;;;1.05;;
82230;SDS011;71832;45.138;9.816;2023-08-30T12:17:42;2.17;;;0.90;;
82230;SDS011;71832;45.138;9.816;2023-08-30T12:20:18;1.80;;;1.00;;
82230;SDS011;71832;45.138;9.816;2023-08-30T12:22:49;2.42;;;1.13;;
82230;SDS011;71832;45.138;9.816;2023-08-30T12:25:19;2.95;;;1.02;;
82230;SDS011;71832;45.138;9.816;2023-08-30T12:27:49;2.85;;;1.02;;
82230;SDS011;71832;45.138;9.816;2023-08-30T12:30:17;2.28;;;0.90;;
82230;SDS011;71832;45.138;9.816;2023-08-30T12:32:45;2.90;;;0.90;;
82230;SDS011;71832;45.138;9.816;2023-08-30T12:35:13;1.10;;;0.98;;
82230;SDS011;71832;45.138;9.816;2023-08-30T12:37:41;3.83;;;0.90;;
82230;SDS011;71832;45.138;9.816;2023-08-30T12:40:10;1.98;;;1.00;;
82230;SDS011;71832;45.138;9.816;2023-08-30T12:42:38;3.97;;;0.90;;
82230;SDS011;71832;45.138;9.816;2023-08-30T12:45:05;1.55;;;0.80;;
82230;SDS011;71832;45.138;9.816;2023-08-30T12:47:33;1.60;;;1.00;;
82230;SDS011;71832;45.138;9.816;2023-08-30T12:50:01;1.00;;;0.73;;
82230;SDS011;71832;45.138;9.816;2023-08-30T12:52:28;1.85;;;0.90;;
82230;SDS011;71832;45.138;9.816;2023-08-30T12:54:56;2.35;;;1.00;;
82230;SDS011;71832;45.138;9.816;2023-08-30T12:57:23;1.75;;;1.10;;
82230;SDS011;71832;45.138;9.816;2023-08-30T12:59:51;1.27;;;1.00;;
82230;SDS011;71832;45.138;9.816;2023-08-30T13:02:19;2.22;;;1.63;;
82230;SDS011;71832;45.138;9.816;2023-08-30T13:04:46;2.45;;;1.20;;
82230;SDS011;71832;45.138;9.816;2023-08-30T13:07:14;3.03;;;1.38;;
82230;SDS011;71832;45.138;9.816;2023-08-30T13:09:43;2.53;;;1.17;;
82230;SDS011;71832;45.138;9.816;2023-08-30T13:12:11;2.55;;;1.13;;
82230;SDS011;71832;45.138;9.816;2023-08-30T13:14:40;2.22;;;1.00;;
82230;SDS011;71832;45.138;9.816;2023-08-30T13:17:07;2.25;;;1.15;;
82230;SDS011;71832;45.138;9.816;2023-08-30T13:19:35;3.15;;;1.30;;
82230;SDS011;71832;45.138;9.816;2023-08-30T13:22:04;2.17;;;1.35;;
82230;SDS011;71832;45.138;9.816;2023-08-30T13:24:31;2.97;;;1.20;;
82230;SDS011;71832;45.138;9.816;2023-08-30T13:26:59;2.33;;;1.10;;
82230;SDS011;71832;45.138;9.816;2023-08-30T13:29:27;1.67;;;1.00;;
82230;SDS011;71832;45.138;9.816;2023-08-30T13:31:55;3.88;;;1.13;;
82230;SDS011;71832;45.138;9.816;2023-08-30T13:34:24;1.75;;;0.98;;
82230;SDS011;71832;45.138;9.816;2023-08-30T13:36:53;0.85;;;0.80;;
82230;SDS011;71832;45.138;9.816;2023-08-30T13:39:21;1.13;;;0.95;;
82230;SDS011;71832;45.138;9.816;2023-08-30T13:41:50;1.80;;;1.00;;
82230;SDS011;71832;45.138;9.816;2023-08-30T13:44:17;2.85;;;1.00;;
82230;SDS011;71832;45.138;9.816;2023-08-30T13:46:46;1.33;;;0.80;;
82230;SDS011;71832;45.138;9.816;2023-08-30T13:49:16;1.45;;;0.82;;
82230;SDS011;71832;45.138;9.816;2023-08-30T13:51:46;2.03;;;1.25;;
82230;SDS011;71832;45.138;9.816;2023-08-30T13:54:14;1.50;;;0.90;;
82230;SDS011;71832;45.138;9.816;2023-08-30T13:56:43;2.50;;;1.10;;
82230;SDS011;71832;45.138;9.816;2023-08-30T13:59:12;1.88;;;1.05;;
82230;SDS011;71832;45.138;9.816;2023-08-30T14:01:40;1.20;;;0.90;;
82230;SDS011;71832;45.138;9.816;2023-08-30T14:04:08;2.10;;;1.20;;
82230;SDS011;71832;45.138;9.816;2023-08-30T14:06:36;1.48;;;1.10;;
82230;SDS011;71832;45.138;9.816;2023-08-30T14:09:04;3.88;;;1.52;;
82230;SDS011;71832;45.138;9.816;2023-08-30T14:11:34;2.95;;;1.10;;
82230;SDS011;71832;45.138;9.816;2023-08-30T14:14:03;1.63;;;0.90;;
82230;SDS011;71832;45.138;9.816;2023-08-30T14:16:31;2.38;;;1.20;;
82230;SDS011;71832;45.138;9.816;2023-08-30T14:18:59;1.23;;;0.90;;
82230;SDS011;71832;45.138;9.816;2023-08-30T14:21:31;6.13;;;2.35;;
82230;SDS011;71832;45.138;9.816;2023-08-30T14:23:59;6.07;;;1.80;;
82230;SDS011;71832;45.138;9.816;2023-08-30T14:26:27;3.63;;;1.50;;
82230;SDS011;71832;45.138;9.816;2023-08-30T14:28:56;2.55;;;1.30;;
82230;SDS011;71832;45.138;9.816;2023-08-30T14:31:24;1.88;;;1.30;;
82230;SDS011;71832;45.138;9.816;2023-08-30T14:33:54;3.03;;;1.23;;
82230;SDS011;71832;45.138;9.816;2023-08-30T14:36:23;3.20;;;1.75;;
82230;SDS011;71832;45.138;9.816;2023-08-30T14:38:52;4.18;;;1.80;;
82230;SDS011;71832;45.138;9.816;2023-08-30T14:41:20;4.50;;;1.30;;
82230;SDS011;71832;45.138;9.816;2023-08-30T14:43:49;5.10;;;1.50;;
82230;SDS011;71832;45.138;9.816;2023-08-30T14:46:17;1.70;;;1.00;;
82230;SDS011;71832;45.138;9.816;2023-08-30T14:48:45;7.25;;;3.75;;
82230;SDS011;71832;45.138;9.816;2023-08-30T14:51:14;4.95;;;2.55;;
82230;SDS011;71832;45.138;9.816;2023-08-30T14:53:43;15.05;;;9.18;;
82230;SDS011;71832;45.138;9.816;2023-08-30T14:56:11;10.90;;;5.63;;
82230;SDS011;71832;45.138;9.816;2023-08-30T14:58:40;27.48;;;18.45;;
82230;SDS011;71832;45.138;9.816;2023-08-30T15:01:07;36.50;;;23.63;;
82230;SDS011;71832;45.138;9.816;2023-08-30T15:03:37;6.30;;;2.80;;
82230;SDS011;71832;45.138;9.816;2023-08-30T15:06:06;27.92;;;18.20;;
82230;SDS011;71832;45.138;9.816;2023-08-30T15:08:35;9.93;;;6.03;;
82230;SDS011;71832;45.138;9.816;2023-08-30T15:11:03;1.92;;;0.80;;